sensor_id;sensor_type;location;lat;lon;timestamp;pressure;altitude;pressure_sealevel;temperature;humidity
46876;BME280;32866;50.160;14.768;2023-09-30T00:00:27;99681.13;;;19.18;100.00
46876;BME280;32866;50.160;14.768;2023-09-30T00:02:53;99702.38;;;19.21;100.00
46876;BME280;32866;50.160;14.768;2023-09-30T00:05:19;99692.25;;;19.18;100.00
46876;BME280;32866;50.160;14.768;2023-09-30T00:07:47;99708.53;;;19.31;100.00
46876;BME280;32866;50.160;14.768;2023-09-30T00:10:13;99713.09;;;19.34;100.00
46876;BME280;32866;50.160;14.768;2023-09-30T00:12:40;99694.41;;;19.08;100.00
46876;BME280;32866;50.160;14.768;2023-09-30T00:15:06;99675.03;;;18.88;100.00
46876;BME280;32866;50.160;14.768;2023-09-30T00:17:33;99681.72;;;18.81;100.00
46876;BME280;32866;50.160;14.768;2023-09-30T00:19:58;99709.44;;;18.96;100.00
46876;BME280;32866;50.160;14.768;2023-09-30T00:22:25;99708.69;;;18.96;100.00
46876;BME280;32866;50.160;14.768;2023-09-30T00:24:51;99716.19;;;18.89;100.00
46876;BME280;32866;50.160;14.768;2023-09-30T00:27:16;99710.50;;;18.99;100.00
46876;BME280;32866;50.160;14.768;2023-09-30T00:29:42;99674.09;;;18.76;100.00
46876;BME280;32866;50.160;14.768;2023-09-30T00:32:08;99659.75;;;18.78;100.00
46876;BME280;32866;50.160;14.768;2023-09-30T00:34:35;99720.72;;;19.13;100.00
46876;BME280;32866;50.160;14.768;2023-09-30T00:37:02;99724.69;;;19.06;100.00
46876;BME280;32866;50.160;14.768;2023-09-30T00:39:28;99722.41;;;19.05;100.00
46876;BME280;32866;50.160;14.768;2023-09-30T00:41:57;99691.72;;;18.73;100.00
46876;BME280;32866;50.160;14.768;2023-09-30T00:44:26;99719.88;;;19.07;100.00
46876;BME280;32866;50.160;14.768;2023-09-30T00:46:54;99722.00;;;19.12;100.00
46876;BME280;32866;50.160;14.768;2023-09-30T00:49:22;99723.50;;;19.13;100.00
46876;BME280;32866;50.160;14.768;2023-09-30T00:51:48;99670.84;;;18.78;100.00
46876;BME280;32866;50.160;14.768;2023-09-30T00:54:15;99722.19;;;19.08;100.00
46876;BME280;32866;50.160;14.768;2023-09-30T00:56:46;99730.81;;;19.11;100.00
46876;BME280;32866;50.160;14.768;2023-09-30T00:59:13;99713.19;;;18.93;100.00
46876;BME280;32866;50.160;14.768;2023-09-30T01:01:44;99695.78;;;18.72;100.00
46876;BME280;32866;50.160;14.768;2023-09-30T01:04:11;99723.44;;;18.87;100.00
46876;BME280;32866;50.160;14.768;2023-09-30T01:06:37;99728.91;;;18.81;100.00
46876;BME280;32866;50.160;14.768;2023-09-30T01:09:03;99730.16;;;18.80;100.00
46876;BME280;32866;50.160;14.768;2023-09-30T01:11:29;99727.31;;;18.75;100.00
46876;BME280;32866;50.160;14.768;2023-09-30T01:13:55;99685.94;;;18.50;100.00
46876;BME280;32866;50.160;14.768;2023-09-30T01:16:21;99736.09;;;18.88;100.00
46876;BME280;32866;50.160;14.768;2023-09-30T01:18:47;99713.78;;;18.62;100.00
46876;BME280;32866;50.160;14.768;2023-09-30T01:21:14;99743.66;;;18.87;100.00
46876;BME280;32866;50.160;14.768;2023-09-30T01:23:40;99749.28;;;18.93;100.00
46876;BME280;32866;50.160;14.768;2023-09-30T01:26:09;99745.47;;;18.90;100.00
46876;BME280;32866;50.160;14.768;2023-09-30T01:28:36;99747.34;;;18.99;100.00
46876;BME280;32866;50.160;14.768;2023-09-30T01:31:02;99703.25;;;18.66;100.00
46876;BME280;32866;50.160;14.768;2023-09-30T01:33:28;99752.13;;;18.99;100.00
46876;BME280;32866;50.160;14.768;2023-09-30T01:35:54;99748.66;;;18.83;100.00
46876;BME280;32866;50.160;14.768;2023-09-30T01:38:20;99749.75;;;18.91;100.00
46876;BME280;32866;50.160;14.768;2023-09-30T01:40:47;99749.97;;;18.88;100.00
46876;BME280;32866;50.160;14.768;2023-09-30T01:43:16;99757.38;;;18.97;100.00
46876;BME280;32866;50.160;14.768;2023-09-30T01:45:42;99758.66;;;18.96;100.00
46876;BME280;32866;50.160;14.768;2023-09-30T01:48:09;99760.66;;;18.95;100.00
46876;BME280;32866;50.160;14.768;2023-09-30T01:50:38;99763.09;;;18.87;100.00
46876;BME280;32866;50.160;14.768;2023-09-30T01:53:05;99735.03;;;18.65;100.00
46876;BME280;32866;50.160;14.768;2023-09-30T01:55:37;99762.88;;;18.91;100.00
46876;BME280;32866;50.160;14.768;2023-09-30T01:58:03;99767.78;;;19.02;100.00
46876;BME280;32866;50.160;14.768;2023-09-30T02:00:29;99738.78;;;18.82;100.00
46876;BME280;32866;50.160;14.768;2023-09-30T02:02:56;99761.28;;;19.05;100.00
46876;BME280;32866;50.160;14.768;2023-09-30T02:05:23;99762.72;;;19.00;100.00
46876;BME280;32866;50.160;14.768;2023-09-30T02:07:50;99776.34;;;18.98;100.00
46876;BME280;32866;50.160;14.768;2023-09-30T02:10:16;99767.19;;;18.92;100.00
46876;BME280;32866;50.160;14.768;2023-09-30T02:12:45;99768.22;;;18.95;100.00
46876;BME280;32866;50.160;14.768;2023-09-30T02:15:11;99734.47;;;18.61;100.00
46876;BME280;32866;50.160;14.768;2023-09-30T02:17:37;99750.72;;;18.68;100.00
46876;BME280;32866;50.160;14.768;2023-09-30T02:20:03;99774.75;;;18.91;100.00
46876;BME280;32866;50.160;14.768;2023-09-30T02:22:39;99789.53;;;18.83;100.00
46876;BME280;32866;50.160;14.768;2023-09-30T02:25:05;99748.09;;;18.59;100.00
46876;BME280;32866;50.160;14.768;2023-09-30T02:27:33;99781.66;;;18.81;100.00
46876;BME280;32866;50.160;14.768;2023-09-30T02:30:00;99755.78;;;18.49;100.00
46876;BME280;32866;50.160;14.768;2023-09-30T02:32:26;99787.91;;;18.76;100.00
46876;BME280;32866;50.160;14.768;2023-09-30T02:34:52;99797.78;;;18.77;100.00
46876;BME280;32866;50.160;14.768;2023-09-30T02:37:18;99804.28;;;18.74;100.00
46876;BME280;32866;50.160;14.768;2023-09-30T02:39:44;99804.28;;;18.74;100.00
46876;BME280;32866;50.160;14.768;2023-09-30T02:42:10;99803.72;;;18.70;100.00
46876;BME280;32866;50.160;14.768;2023-09-30T02:44:36;99796.13;;;18.50;100.00
46876;BME280;32866;50.160;14.768;2023-09-30T02:47:02;99825.16;;;18.69;100.00
46876;BME280;32866;50.160;14.768;2023-09-30T02:49:28;99762.31;;;18.31;100.00
46876;BME280;32866;50.160;14.768;2023-09-30T02:51:54;99819.53;;;18.64;100.00
46876;BME280;32866;50.160;14.768;2023-09-30T02:54:20;99785.88;;;18.21;100.00
46876;BME280;32866;50.160;14.768;2023-09-30T02:56:46;99825.03;;;18.43;100.00
46876;BME280;32866;50.160;14.768;2023-09-30T02:59:13;99822.94;;;18.38;100.00
46876;BME280;32866;50.160;14.768;2023-09-30T03:01:40;99833.47;;;18.34;100.00
46876;BME280;32866;50.160;14.768;2023-09-30T03:04:06;99804.28;;;18.03;100.00
46876;BME280;32866;50.160;14.768;2023-09-30T03:06:33;99837.22;;;18.31;100.00
46876;BME280;32866;50.160;14.768;2023-09-30T03:09:01;99841.63;;;18.23;100.00
46876;BME280;32866;50.160;14.768;2023-09-30T03:11:28;99840.28;;;18.18;100.00
46876;BME280;32866;50.160;14.768;2023-09-30T03:13:55;99828.16;;;18.15;100.00
46876;BME280;32866;50.160;14.768;2023-09-30T03:16:21;99840.00;;;18.16;100.00
46876;BME280;32866;50.160;14.768;2023-09-30T03:18:47;99851.56;;;18.14;100.00
46876;BME280;32866;50.160;14.768;2023-09-30T03:21:14;99828.13;;;17.86;100.00
46876;BME280;32866;50.160;14.768;2023-09-30T03:23:41;99853.50;;;18.08;100.00
46876;BME280;32866;50.160;14.768;2023-09-30T03:26:07;99817.44;;;17.78;100.00
46876;BME280;32866;50.160;14.768;2023-09-30T03:28:39;99799.25;;;17.77;100.00
46876;BME280;32866;50.160;14.768;2023-09-30T03:31:05;99867.25;;;18.17;100.00
46876;BME280;32866;50.160;14.768;2023-09-30T03:33:32;99867.94;;;18.12;100.00
46876;BME280;32866;50.160;14.768;2023-09-30T03:35:58;99872.91;;;18.08;100.00
46876;BME280;32866;50.160;14.768;2023-09-30T03:38:25;99863.81;;;18.08;100.00
46876;BME280;32866;50.160;14.768;2023-09-30T03:40:51;99867.72;;;18.01;100.00
46876;BME280;32866;50.160;14.768;2023-09-30T03:43:19;99839.97;;;17.71;100.00
46876;BME280;32866;50.160;14.768;2023-09-30T03:45:46;99830.88;;;17.56;100.00
46876;BME280;32866;50.160;14.768;2023-09-30T03:48:13;99864.16;;;17.86;100.00
46876;BME280;32866;50.160;14.768;2023-09-30T03:50:39;99839.09;;;17.50;100.00
46876;BME280;32866;50.160;14.768;2023-09-30T03:53:05;99876.88;;;17.77;100.00
46876;BME280;32866;50.160;14.768;2023-09-30T03:55:35;99877.81;;;17.74;100.00
46876;BME280;32866;50.160;14.768;2023-09-30T03:58:02;99839.41;;;17.28;100.00
46876;BME280;32866;50.160;14.768;2023-09-30T04:00:29;99852.38;;;17.22;100.00
46876;BME280;32866;50.160;14.768;2023-09-30T04:02:55;99842.91;;;17.14;100.00
46876;BME280;32866;50.160;14.768;2023-09-30T04:05:25;99892.56;;;17.41;100.00
46876;BME280;32866;50.160;14.768;2023-09-30T04:08:02;99890.91;;;17.35;100.00
46876;BME280;32866;50.160;14.768;2023-09-30T04:10:28;99910.88;;;17.39;100.00
46876;BME280;32866;50.160;14.768;2023-09-30T04:12:55;99871.34;;;17.14;100.00
46876;BME280;32866;50.160;14.768;2023-09-30T04:15:21;99911.59;;;17.49;100.00
46876;BME280;32866;50.160;14.768;2023-09-30T04:17:48;99890.50;;;17.27;100.00
46876;BME280;32866;50.160;14.768;2023-09-30T04:20:14;99876.25;;;17.19;100.00
46876;BME280;32866;50.160;14.768;2023-09-30T04:22:48;99921.00;;;17.42;100.00
46876;BME280;32866;50.160;14.768;2023-09-30T04:25:15;99921.06;;;17.33;100.00
46876;BME280;32866;50.160;14.768;2023-09-30T04:27:45;99931.00;;;17.24;100.00
46876;BME280;32866;50.160;14.768;2023-09-30T04:30:14;99922.53;;;17.19;100.00
46876;BME280;32866;50.160;14.768;2023-09-30T04:32:41;99938.22;;;17.22;100.00
46876;BME280;32866;50.160;14.768;2023-09-30T04:35:07;99941.47;;;17.20;100.00
46876;BME280;32866;50.160;14.768;2023-09-30T04:37:36;99942.00;;;17.10;100.00
46876;BME280;32866;50.160;14.768;2023-09-30T04:40:07;99953.56;;;16.99;100.00
46876;BME280;32866;50.160;14.768;2023-09-30T04:42:46;99958.53;;;16.85;100.00
46876;BME280;32866;50.160;14.768;2023-09-30T04:45:15;99971.00;;;16.81;100.00
46876;BME280;32866;50.160;14.768;2023-09-30T04:47:50;99970.56;;;16.73;100.00
46876;BME280;32866;50.160;14.768;2023-09-30T04:50:16;99964.28;;;16.73;100.00
46876;BME280;32866;50.160;14.768;2023-09-30T04:52:42;99965.50;;;16.72;100.00
46876;BME280;32866;50.160;14.768;2023-09-30T04:55:09;99914.72;;;16.41;100.00
46876;BME280;32866;50.160;14.768;2023-09-30T04:57:35;99980.53;;;16.80;100.00
46876;BME280;32866;50.160;14.768;2023-09-30T05:00:01;99982.06;;;16.81;100.00
46876;BME280;32866;50.160;14.768;2023-09-30T05:02:27;99982.22;;;16.77;100.00
46876;BME280;32866;50.160;14.768;2023-09-30T05:04:53;99992.88;;;16.69;100.00
46876;BME280;32866;50.160;14.768;2023-09-30T05:07:22;99989.00;;;16.67;100.00
46876;BME280;32866;50.160;14.768;2023-09-30T05:09:48;99980.59;;;16.61;100.00
46876;BME280;32866;50.160;14.768;2023-09-30T05:12:14;99982.44;;;16.64;100.00
46876;BME280;32866;50.160;14.768;2023-09-30T05:14:41;99989.50;;;16.56;100.00
46876;BME280;32866;50.160;14.768;2023-09-30T05:17:09;99957.00;;;16.23;100.00
46876;BME280;32866;50.160;14.768;2023-09-30T05:19:35;100000.56;;;16.56;100.00
46876;BME280;32866;50.160;14.768;2023-09-30T05:22:03;99974.34;;;16.33;100.00
46876;BME280;32866;50.160;14.768;2023-09-30T05:24:29;99989.88;;;16.21;100.00
46876;BME280;32866;50.160;14.768;2023-09-30T05:26:55;100024.22;;;16.57;100.00
46876;BME280;32866;50.160;14.768;2023-09-30T05:29:21;100043.28;;;16.64;100.00
46876;BME280;32866;50.160;14.768;2023-09-30T05:31:48;100045.13;;;16.58;100.00
46876;BME280;32866;50.160;14.768;2023-09-30T05:34:13;100043.91;;;16.50;100.00
46876;BME280;32866;50.160;14.768;2023-09-30T05:36:40;100018.28;;;16.22;100.00
46876;BME280;32866;50.160;14.768;2023-09-30T05:39:06;100008.31;;;16.15;100.00
46876;BME280;32866;50.160;14.768;2023-09-30T05:41:31;100052.69;;;16.48;100.00
46876;BME280;32866;50.160;14.768;2023-09-30T05:43:57;100064.81;;;16.51;100.00
46876;BME280;32866;50.160;14.768;2023-09-30T05:46:25;100063.91;;;16.54;100.00
46876;BME280;32866;50.160;14.768;2023-09-30T05:48:53;100065.75;;;16.48;100.00
46876;BME280;32866;50.160;14.768;2023-09-30T05:51:19;100034.72;;;16.25;100.00
46876;BME280;32866;50.160;14.768;2023-09-30T05:53:44;100075.72;;;16.55;100.00
46876;BME280;32866;50.160;14.768;2023-09-30T05:56:12;100022.13;;;16.24;100.00
46876;BME280;32866;50.160;14.768;2023-09-30T05:58:44;100059.91;;;16.37;100.00
46876;BME280;32866;50.160;14.768;2023-09-30T06:01:10;100034.25;;;16.08;100.00
46876;BME280;32866;50.160;14.768;2023-09-30T06:03:37;100088.47;;;16.33;100.00
46876;BME280;32866;50.160;14.768;2023-09-30T06:06:13;100041.31;;;16.00;100.00
46876;BME280;32866;50.160;14.768;2023-09-30T06:08:39;100091.38;;;16.11;100.00
46876;BME280;32866;50.160;14.768;2023-09-30T06:11:05;100067.41;;;15.90;100.00
46876;BME280;32866;50.160;14.768;2023-09-30T06:13:32;100089.69;;;16.05;100.00
46876;BME280;32866;50.160;14.768;2023-09-30T06:15:58;100041.56;;;15.74;100.00
46876;BME280;32866;50.160;14.768;2023-09-30T06:18:24;100105.50;;;16.04;100.00
46876;BME280;32866;50.160;14.768;2023-09-30T06:20:50;100109.34;;;16.07;100.00
46876;BME280;32866;50.160;14.768;2023-09-30T06:23:16;100113.31;;;15.97;100.00
46876;BME280;32866;50.160;14.768;2023-09-30T06:25:43;100121.00;;;15.92;100.00
46876;BME280;32866;50.160;14.768;2023-09-30T06:28:08;100117.59;;;15.79;100.00
46876;BME280;32866;50.160;14.768;2023-09-30T06:30:35;100091.06;;;15.50;100.00
46876;BME280;32866;50.160;14.768;2023-09-30T06:33:01;100085.56;;;15.59;100.00
46876;BME280;32866;50.160;14.768;2023-09-30T06:35:30;100129.75;;;16.00;100.00
46876;BME280;32866;50.160;14.768;2023-09-30T06:38:00;100093.78;;;15.82;100.00
46876;BME280;32866;50.160;14.768;2023-09-30T06:40:26;100143.94;;;16.30;100.00
46876;BME280;32866;50.160;14.768;2023-09-30T06:42:53;100099.38;;;16.19;100.00
46876;BME280;32866;50.160;14.768;2023-09-30T06:45:19;100140.13;;;16.64;100.00
46876;BME280;32866;50.160;14.768;2023-09-30T06:47:45;100132.56;;;16.56;100.00
46876;BME280;32866;50.160;14.768;2023-09-30T06:50:12;100147.19;;;16.47;100.00
46876;BME280;32866;50.160;14.768;2023-09-30T06:52:42;100146.91;;;16.54;100.00
46876;BME280;32866;50.160;14.768;2023-09-30T06:55:11;100142.88;;;16.55;100.00
46876;BME280;32866;50.160;14.768;2023-09-30T06:57:40;100146.25;;;16.50;100.00
46876;BME280;32866;50.160;14.768;2023-09-30T07:00:13;100148.09;;;16.35;100.00
46876;BME280;32866;50.160;14.768;2023-09-30T07:02:40;100155.47;;;16.28;100.00
46876;BME280;32866;50.160;14.768;2023-09-30T07:05:11;100157.88;;;16.17;100.00
46876;BME280;32866;50.160;14.768;2023-09-30T07:07:39;100169.28;;;16.19;100.00
46876;BME280;32866;50.160;14.768;2023-09-30T07:10:11;100170.75;;;16.02;100.00
46876;BME280;32866;50.160;14.768;2023-09-30T07:12:37;100163.88;;;15.66;100.00
46876;BME280;32866;50.160;14.768;2023-09-30T07:15:04;100148.44;;;15.46;100.00
46876;BME280;32866;50.160;14.768;2023-09-30T07:17:32;100181.41;;;15.72;100.00
46876;BME280;32866;50.160;14.768;2023-09-30T07:19:58;100156.13;;;15.51;100.00
46876;BME280;32866;50.160;14.768;2023-09-30T07:22:25;100154.53;;;15.41;100.00
46876;BME280;32866;50.160;14.768;2023-09-30T07:24:51;100188.13;;;15.71;100.00
46876;BME280;32866;50.160;14.768;2023-09-30T07:27:17;100212.66;;;15.91;100.00
46876;BME280;32866;50.160;14.768;2023-09-30T07:29:43;100216.22;;;16.01;100.00
46876;BME280;32866;50.160;14.768;2023-09-30T07:32:09;100224.38;;;16.13;100.00
46876;BME280;32866;50.160;14.768;2023-09-30T07:34:35;100228.91;;;16.29;100.00
46876;BME280;32866;50.160;14.768;2023-09-30T07:37:01;100230.31;;;16.43;100.00
46876;BME280;32866;50.160;14.768;2023-09-30T07:39:28;100230.78;;;16.51;100.00
46876;BME280;32866;50.160;14.768;2023-09-30T07:41:54;100192.34;;;16.44;100.00
46876;BME280;32866;50.160;14.768;2023-09-30T07:44:20;100206.22;;;16.72;100.00
46876;BME280;32866;50.160;14.768;2023-09-30T07:46:46;100235.78;;;16.93;100.00
46876;BME280;32866;50.160;14.768;2023-09-30T07:49:12;100247.41;;;16.69;100.00
46876;BME280;32866;50.160;14.768;2023-09-30T07:51:38;100220.91;;;16.22;100.00
46876;BME280;32866;50.160;14.768;2023-09-30T07:54:05;100255.16;;;16.25;100.00
46876;BME280;32866;50.160;14.768;2023-09-30T07:56:32;100260.31;;;16.04;100.00
46876;BME280;32866;50.160;14.768;2023-09-30T07:58:57;100259.78;;;15.87;100.00
46876;BME280;32866;50.160;14.768;2023-09-30T08:01:23;100243.78;;;15.60;100.00
46876;BME280;32866;50.160;14.768;2023-09-30T08:03:49;100213.28;;;15.42;100.00
46876;BME280;32866;50.160;14.768;2023-09-30T08:06:16;100258.28;;;15.95;100.00
46876;BME280;32866;50.160;14.768;2023-09-30T08:08:42;100227.81;;;15.86;100.00
46876;BME280;32866;50.160;14.768;2023-09-30T08:11:07;100270.94;;;16.15;100.00
46876;BME280;32866;50.160;14.768;2023-09-30T08:13:33;100269.44;;;16.23;100.00
46876;BME280;32866;50.160;14.768;2023-09-30T08:16:00;100258.22;;;16.18;100.00
46876;BME280;32866;50.160;14.768;2023-09-30T08:18:26;100267.31;;;16.27;100.00
46876;BME280;32866;50.160;14.768;2023-09-30T08:20:52;100219.59;;;15.95;100.00
46876;BME280;32866;50.160;14.768;2023-09-30T08:23:18;100254.06;;;16.22;100.00
46876;BME280;32866;50.160;14.768;2023-09-30T08:25:44;100215.69;;;16.24;100.00
46876;BME280;32866;50.160;14.768;2023-09-30T08:28:10;100262.06;;;16.98;100.00
46876;BME280;32866;50.160;14.768;2023-09-30T08:30:36;100228.41;;;16.99;100.00
46876;BME280;32866;50.160;14.768;2023-09-30T08:33:02;100212.25;;;16.88;100.00
46876;BME280;32866;50.160;14.768;2023-09-30T08:35:30;100206.84;;;16.94;100.00
46876;BME280;32866;50.160;14.768;2023-09-30T08:37:57;100251.13;;;17.22;100.00
46876;BME280;32866;50.160;14.768;2023-09-30T08:40:24;100234.84;;;17.05;100.00
46876;BME280;32866;50.160;14.768;2023-09-30T08:42:53;100223.91;;;17.20;100.00
46876;BME280;32866;50.160;14.768;2023-09-30T08:45:19;100265.53;;;17.63;100.00
46876;BME280;32866;50.160;14.768;2023-09-30T08:47:45;100269.50;;;17.80;100.00
46876;BME280;32866;50.160;14.768;2023-09-30T08:50:17;100273.78;;;17.91;100.00
46876;BME280;32866;50.160;14.768;2023-09-30T08:52:44;100267.91;;;17.98;100.00
46876;BME280;32866;50.160;14.768;2023-09-30T08:55:11;100244.88;;;17.73;100.00
46876;BME280;32866;50.160;14.768;2023-09-30T08:57:40;100275.84;;;18.14;100.00
46876;BME280;32866;50.160;14.768;2023-09-30T09:00:07;100271.03;;;17.82;100.00
46876;BME280;32866;50.160;14.768;2023-09-30T09:02:37;100264.56;;;17.75;100.00
46876;BME280;32866;50.160;14.768;2023-09-30T09:05:03;100277.41;;;18.15;100.00
46876;BME280;32866;50.160;14.768;2023-09-30T09:07:29;100237.09;;;18.05;100.00
46876;BME280;32866;50.160;14.768;2023-09-30T09:10:10;100270.66;;;18.41;100.00
46876;BME280;32866;50.160;14.768;2023-09-30T09:12:37;100279.63;;;18.35;97.44
46876;BME280;32866;50.160;14.768;2023-09-30T09:15:19;100287.78;;;18.30;100.00
46876;BME280;32866;50.160;14.768;2023-09-30T09:17:45;100283.28;;;18.66;96.65
46876;BME280;32866;50.160;14.768;2023-09-30T09:20:12;100277.69;;;18.51;100.00
46876;BME280;32866;50.160;14.768;2023-09-30T09:22:46;100272.56;;;18.83;96.54
46876;BME280;32866;50.160;14.768;2023-09-30T09:25:13;100282.25;;;18.87;96.34
46876;BME280;32866;50.160;14.768;2023-09-30T09:27:39;100284.38;;;18.93;94.99
46876;BME280;32866;50.160;14.768;2023-09-30T09:30:17;100284.44;;;18.83;97.16
46876;BME280;32866;50.160;14.768;2023-09-30T09:33:00;100294.69;;;18.68;96.33
46876;BME280;32866;50.160;14.768;2023-09-30T09:35:28;100305.03;;;18.67;98.05
46876;BME280;32866;50.160;14.768;2023-09-30T09:38:05;100299.38;;;18.86;96.76
46876;BME280;32866;50.160;14.768;2023-09-30T09:40:34;100298.81;;;18.72;94.66
46876;BME280;32866;50.160;14.768;2023-09-30T09:43:01;100297.09;;;18.75;96.53
46876;BME280;32866;50.160;14.768;2023-09-30T09:45:35;100267.22;;;18.46;95.25
46876;BME280;32866;50.160;14.768;2023-09-30T09:48:03;100302.22;;;18.43;94.74
46876;BME280;32866;50.160;14.768;2023-09-30T09:50:30;100312.41;;;18.70;90.16
46876;BME280;32866;50.160;14.768;2023-09-30T09:52:59;100308.81;;;19.03;93.17
46876;BME280;32866;50.160;14.768;2023-09-30T09:55:27;100308.00;;;19.27;90.87
46876;BME280;32866;50.160;14.768;2023-09-30T09:57:54;100308.72;;;19.67;89.87
46876;BME280;32866;50.160;14.768;2023-09-30T10:00:25;100283.03;;;19.42;83.07
46876;BME280;32866;50.160;14.768;2023-09-30T10:02:52;100313.47;;;19.21;79.67
46876;BME280;32866;50.160;14.768;2023-09-30T10:05:19;100326.53;;;19.45;80.17
46876;BME280;32866;50.160;14.768;2023-09-30T10:08:00;100313.59;;;19.57;77.14
46876;BME280;32866;50.160;14.768;2023-09-30T10:10:27;100322.72;;;19.42;79.96
46876;BME280;32866;50.160;14.768;2023-09-30T10:12:54;100314.28;;;19.52;77.30
46876;BME280;32866;50.160;14.768;2023-09-30T10:20:28;100308.06;;;19.72;71.41
46876;BME280;32866;50.160;14.768;2023-09-30T10:23:20;100308.94;;;19.63;71.75
46876;BME280;32866;50.160;14.768;2023-09-30T10:25:47;100303.53;;;19.44;71.42
46876;BME280;32866;50.160;14.768;2023-09-30T10:28:46;100297.69;;;19.57;74.45
46876;BME280;32866;50.160;14.768;2023-09-30T10:31:19;100300.81;;;19.89;71.03
46876;BME280;32866;50.160;14.768;2023-09-30T10:36:32;100311.09;;;20.33;64.74
46876;BME280;32866;50.160;14.768;2023-09-30T10:38:58;100311.53;;;20.47;66.99
46876;BME280;32866;50.160;14.768;2023-09-30T10:46:49;100307.09;;;21.37;62.91
46876;BME280;32866;50.160;14.768;2023-09-30T10:49:17;100306.59;;;21.65;62.98
46876;BME280;32866;50.160;14.768;2023-09-30T10:51:46;100310.69;;;21.64;64.26
46876;BME280;32866;50.160;14.768;2023-09-30T10:54:14;100308.31;;;21.57;63.69
46876;BME280;32866;50.160;14.768;2023-09-30T10:56:46;100267.81;;;21.35;63.90
46876;BME280;32866;50.160;14.768;2023-09-30T10:59:21;100304.91;;;22.86;57.22
46876;BME280;32866;50.160;14.768;2023-09-30T11:01:51;100290.91;;;22.74;57.99
46876;BME280;32866;50.160;14.768;2023-09-30T11:04:19;100300.16;;;22.49;58.95
46876;BME280;32866;50.160;14.768;2023-09-30T11:06:46;100287.00;;;22.55;57.41
46876;BME280;32866;50.160;14.768;2023-09-30T11:09:16;100303.34;;;21.98;59.66
46876;BME280;32866;50.160;14.768;2023-09-30T11:11:45;100313.13;;;21.56;62.50
46876;BME280;32866;50.160;14.768;2023-09-30T11:14:21;100316.25;;;21.64;61.64
46876;BME280;32866;50.160;14.768;2023-09-30T11:16:50;100301.50;;;21.90;60.91
46876;BME280;32866;50.160;14.768;2023-09-30T11:19:16;100304.56;;;22.67;58.16
46876;BME280;32866;50.160;14.768;2023-09-30T11:21:43;100274.28;;;23.14;57.23
46876;BME280;32866;50.160;14.768;2023-09-30T11:24:10;100300.31;;;23.88;52.99
46876;BME280;32866;50.160;14.768;2023-09-30T11:26:37;100299.78;;;24.18;52.35
46876;BME280;32866;50.160;14.768;2023-09-30T11:29:08;100306.09;;;24.47;52.34
46876;BME280;32866;50.160;14.768;2023-09-30T11:31:40;100297.56;;;24.92;49.52
46876;BME280;32866;50.160;14.768;2023-09-30T11:34:07;100296.22;;;25.10;48.76
46876;BME280;32866;50.160;14.768;2023-09-30T11:36:38;100298.06;;;24.96;51.47
46876;BME280;32866;50.160;14.768;2023-09-30T11:39:05;100293.09;;;25.19;49.96
46876;BME280;32866;50.160;14.768;2023-09-30T11:41:42;100289.19;;;25.39;47.96
46876;BME280;32866;50.160;14.768;2023-09-30T11:44:12;100284.94;;;25.21;48.63
46876;BME280;32866;50.160;14.768;2023-09-30T11:47:00;100288.72;;;25.65;48.73
46876;BME280;32866;50.160;14.768;2023-09-30T11:49:32;100267.91;;;25.85;45.89
46876;BME280;32866;50.160;14.768;2023-09-30T11:51:59;100291.81;;;26.47;45.29
46876;BME280;32866;50.160;14.768;2023-09-30T11:57:10;100287.72;;;25.27;46.21
46876;BME280;32866;50.160;14.768;2023-09-30T11:59:37;100282.03;;;25.38;44.48
46876;BME280;32866;50.160;14.768;2023-09-30T12:02:05;100277.09;;;25.14;45.84
46876;BME280;32866;50.160;14.768;2023-09-30T12:04:40;100252.97;;;24.94;44.77
46876;BME280;32866;50.160;14.768;2023-09-30T12:07:06;100232.91;;;24.78;45.32
46876;BME280;32866;50.160;14.768;2023-09-30T12:09:32;100240.78;;;25.33;43.54
46876;BME280;32866;50.160;14.768;2023-09-30T12:12:00;100271.59;;;25.69;43.10
46876;BME280;32866;50.160;14.768;2023-09-30T12:14:26;100275.22;;;24.80;45.37
46876;BME280;32866;50.160;14.768;2023-09-30T12:16:56;100265.75;;;24.84;46.12
46876;BME280;32866;50.160;14.768;2023-09-30T12:19:22;100254.72;;;25.03;44.78
46876;BME280;32866;50.160;14.768;2023-09-30T12:21:48;100264.72;;;24.87;45.71
46876;BME280;32866;50.160;14.768;2023-09-30T12:24:15;100252.44;;;25.01;44.13
46876;BME280;32866;50.160;14.768;2023-09-30T12:26:48;100264.38;;;25.02;45.67
46876;BME280;32866;50.160;14.768;2023-09-30T12:29:15;100260.84;;;25.43;45.73
46876;BME280;32866;50.160;14.768;2023-09-30T12:31:46;100267.66;;;25.53;45.00
46876;BME280;32866;50.160;14.768;2023-09-30T12:34:13;100250.16;;;26.02;42.38
46876;BME280;32866;50.160;14.768;2023-09-30T12:36:40;100265.81;;;25.19;42.28
46876;BME280;32866;50.160;14.768;2023-09-30T12:39:07;100259.97;;;24.70;42.87
46876;BME280;32866;50.160;14.768;2023-09-30T12:41:41;100263.50;;;24.82;42.74
46876;BME280;32866;50.160;14.768;2023-09-30T12:44:08;100257.03;;;25.40;42.05
46876;BME280;32866;50.160;14.768;2023-09-30T12:46:35;100262.41;;;25.38;41.46
46876;BME280;32866;50.160;14.768;2023-09-30T12:49:03;100248.31;;;25.49;41.52
46876;BME280;32866;50.160;14.768;2023-09-30T12:51:29;100251.28;;;25.63;41.55
46876;BME280;32866;50.160;14.768;2023-09-30T12:53:56;100249.56;;;25.12;41.84
46876;BME280;32866;50.160;14.768;2023-09-30T12:56:24;100251.88;;;25.80;42.47